Time;durP1;ratioP1;P1;durP2;ratioP2;P2;SDS_P1;SDS_P2;PMS_P1;PMS_P2;Temp;Humidity;BMP_temperature;BMP_pressure;BME280_temperature;BME280_humidity;BME280_pressure;Samples;Min_cycle;Max_cycle;Signal;HPM_P1;HPM_P2
2022/02/02 00:04:21;;;;;;;9.75;2.33;;;;;;;4.47;100.00;97252.88;10377847;28;20087;-61
2022/02/02 00:09:26;;;;;;;10.15;2.30;;;;;;;4.54;100.00;97278.94;10379926;28;20045;-63
2022/02/02 00:14:47;;;;;;;7.00;1.95;;;;;;;4.56;100.00;97248.47;10393239;28;20057;-61
2022/02/02 00:19:59;;;;;;;10.20;2.22;;;;;;;4.53;100.00;97263.94;10365804;28;20049;-62
2022/02/02 00:25:12;;;;;;;12.13;2.30;;;;;;;4.55;100.00;97270.78;10380634;28;20144;-61
2022/02/02 00:30:18;;;;;;;9.07;2.08;;;;;;;4.57;100.00;97278.66;10383878;28;20405;-60
2022/02/02 00:35:27;;;;;;;8.52;1.85;;;;;;;4.57;100.00;97271.47;10376288;28;20069;-62
2022/02/02 00:40:32;;;;;;;9.15;1.98;;;;;;;4.62;100.00;97297.69;10374388;28;20546;-62
2022/02/02 00:45:43;;;;;;;8.90;2.08;;;;;;;4.63;100.00;97289.56;10381013;28;20104;-61
2022/02/02 00:50:47;;;;;;;8.18;2.08;;;;;;;4.58;100.00;97291.84;10371720;28;20041;-60
2022/02/02 00:55:53;;;;;;;7.95;1.65;;;;;;;4.49;100.00;97316.75;10371294;28;20042;-62
2022/02/02 01:00:56;;;;;;;10.70;1.90;;;;;;;4.47;100.00;97326.72;10375558;28;20103;-62
2022/02/02 01:06:01;;;;;;;9.15;2.08;;;;;;;4.42;100.00;97342.31;10396836;28;20049;-62
2022/02/02 01:11:28;;;;;;;9.43;1.60;;;;;;;4.42;100.00;97340.50;10383952;28;20057;-62
2022/02/02 01:27:56;;;;;;;11.43;2.00;;;;;;;4.40;100.00;97357.66;10349882;28;20061;-61
2022/02/02 01:32:59;;;;;;;8.80;1.80;;;;;;;4.38;100.00;97343.63;10376835;28;20069;-61
2022/02/02 01:38:03;;;;;;;11.43;1.90;;;;;;;4.37;100.00;97352.63;10377678;28;20108;-63
2022/02/02 01:43:12;;;;;;;9.02;2.10;;;;;;;4.43;100.00;97352.84;10373951;28;20041;-62
2022/02/02 01:48:23;;;;;;;12.73;2.00;;;;;;;4.45;100.00;97356.22;10375012;28;20487;-61
2022/02/02 01:53:35;;;;;;;6.67;1.83;;;;;;;4.43;100.00;97344.84;10371929;28;20410;-60
2022/02/02 01:58:52;;;;;;;;;;;;;;;4.42;100.00;97360.97;10385366;28;20060;-57
2022/02/02 02:03:55;;;;;;;9.30;1.83;;;;;;;4.51;100.00;97325.44;10357529;28;20008;-61
2022/02/02 02:08:58;;;;;;;8.82;1.88;;;;;;;4.55;100.00;97345.47;10377778;28;20042;-62
2022/02/02 02:14:37;;;;;;;11.88;2.40;;;;;;;4.49;100.00;97351.41;10356931;28;20080;-61
2022/02/02 02:19:45;;;;;;;10.32;2.17;;;;;;;4.49;100.00;97351.41;10383745;28;20457;-61
2022/02/02 02:24:49;;;;;;;11.98;2.30;;;;;;;4.45;100.00;97344.69;10381208;28;20050;-60
2022/02/02 02:30:06;;;;;;;16.48;3.10;;;;;;;4.43;100.00;97373.34;10385339;28;20433;-62
2022/02/02 02:35:36;;;;;;;11.63;2.70;;;;;;;4.41;100.00;97338.00;10423114;28;20037;-61
2022/02/02 02:56:48;;;;;;;10.43;2.22;;;;;;;4.31;100.00;97344.19;10363980;28;20529;-62
2022/02/02 03:02:26;;;;;;;11.02;2.10;;;;;;;4.29;100.00;97348.84;10366761;28;20080;-59
2022/02/02 03:56:14;;;;;;;5.55;1.10;;;;;;;3.96;100.00;97428.38;10361361;28;20409;-62
2022/02/02 04:01:33;;;;;;;6.93;1.25;;;;;;;3.96;100.00;97407.06;10381070;28;20046;-61
2022/02/02 04:06:44;;;;;;;6.78;1.45;;;;;;;3.92;100.00;97424.34;10380364;28;20038;-61
2022/02/02 04:11:56;;;;;;;6.07;1.23;;;;;;;3.84;100.00;97418.88;10383080;28;20132;-61
2022/02/02 04:17:38;;;;;;;5.65;1.20;;;;;;;3.82;100.00;97410.19;10367204;28;20049;-62
2022/02/02 04:54:56;;;;;;;9.57;1.80;;;;;;;3.45;100.00;97446.38;10375931;28;20049;-61
2022/02/02 05:00:37;;;;;;;15.27;2.15;;;;;;;3.53;100.00;97440.38;10373621;28;20774;-61
2022/02/02 05:05:53;;;;;;;11.45;2.00;;;;;;;3.55;100.00;97460.53;10370204;28;20109;-61
2022/02/02 05:43:36;;;;;;;6.72;1.80;;;;;;;3.75;100.00;97479.19;10386199;28;20050;-63
2022/02/02 05:48:55;;;;;;;;;;;;;;;3.70;100.00;97471.59;10380251;28;20037;-60
2022/02/02 05:54:02;;;;;;;12.32;2.20;;;;;;;3.75;100.00;97476.53;10374769;28;19924;-63
2022/02/02 05:59:05;;;;;;;9.75;2.08;;;;;;;3.75;100.00;97497.84;10369627;28;20130;-63
2022/02/02 06:04:09;;;;;;;9.85;2.03;;;;;;;3.77;100.00;97495.84;10374927;28;20048;-63
2022/02/02 06:09:14;;;;;;;13.30;2.58;;;;;;;3.78;100.00;97504.69;10376326;28;20042;-63
2022/02/02 06:14:19;;;;;;;15.48;2.70;;;;;;;3.77;100.00;97506.50;10372400;28;20037;-63
2022/02/02 06:19:25;;;;;;;15.85;2.95;;;;;;;3.76;100.00;97527.97;10390219;28;20120;-63
2022/02/02 06:24:33;;;;;;;12.70;2.72;;;;;;;3.62;100.00;97570.00;10422046;28;20102;-63
2022/02/02 06:29:42;;;;;;;13.80;2.60;;;;;;;3.49;100.00;97593.41;10416080;28;20131;-63
2022/02/02 06:34:46;;;;;;;12.25;2.20;;;;;;;3.46;100.00;97591.03;10417726;28;20068;-62
2022/02/02 06:39:52;;;;;;;10.07;2.03;;;;;;;3.39;100.00;97604.88;10420227;28;20115;-62
2022/02/02 06:44:56;;;;;;;9.57;2.20;;;;;;;3.41;100.00;97619.88;10415767;28;20043;-63
2022/02/02 06:50:08;;;;;;;11.27;2.10;;;;;;;3.34;100.00;97622.22;10382090;28;20107;-62
2022/02/02 06:55:26;;;;;;;;;;;;;;;3.24;100.00;97640.81;10410970;28;20123;-59
2022/02/02 07:00:37;;;;;;;10.50;2.33;;;;;;;3.23;100.00;97653.31;10384840;28;20051;-62
2022/02/02 07:05:52;;;;;;;7.28;1.65;;;;;;;3.24;100.00;97664.78;10403916;28;20045;-62
2022/02/02 07:11:18;;;;;;;8.32;1.77;;;;;;;3.26;100.00;97659.34;10403676;28;20041;-62
2022/02/02 07:16:35;;;;;;;8.20;1.85;;;;;;;3.27;100.00;97653.88;10400077;28;20044;-63
2022/02/02 07:32:24;;;;;;;12.00;2.10;;;;;;;3.36;100.00;97668.19;10416135;28;20049;-62
2022/02/02 07:37:32;;;;;;;17.25;2.47;;;;;;;3.38;100.00;97677.72;10407783;28;20506;-62
2022/02/02 07:42:42;;;;;;;13.45;2.53;;;;;;;3.43;100.00;97665.84;10414949;28;20047;-62
2022/02/02 07:47:48;;;;;;;13.02;2.70;;;;;;;3.52;100.00;97659.72;10418239;28;20049;-62
2022/02/02 07:52:52;;;;;;;14.35;2.13;;;;;;;3.54;100.00;97692.38;10423522;28;20614;-63
2022/02/02 07:57:59;;;;;;;13.45;2.53;;;;;;;3.66;100.00;97670.00;10405142;28;20406;-61
2022/02/02 08:03:07;;;;;;;12.27;2.30;;;;;;;3.69;100.00;97667.06;10430880;28;20055;-63
2022/02/02 08:08:27;;;;;;;14.23;2.72;;;;;;;3.74;100.00;97677.31;10417681;28;20120;-63
2022/02/02 08:13:39;;;;;;;11.82;3.00;;;;;;;3.84;100.00;97677.31;10419428;28;20475;-63
2022/02/02 08:18:46;;;;;;;12.93;3.10;;;;;;;3.85;100.00;97685.19;10417335;28;20045;-63
2022/02/02 08:23:50;;;;;;;14.93;2.33;;;;;;;3.94;100.00;97704.81;10424058;28;20511;-63
2022/02/02 08:28:58;;;;;;;13.98;2.50;;;;;;;3.95;100.00;97738.47;10417557;28;20132;-63
2022/02/02 08:34:08;;;;;;;12.60;2.45;;;;;;;3.92;100.00;97725.44;10397621;28;20506;-64
2022/02/02 08:39:26;;;;;;;12.25;2.25;;;;;;;3.88;100.00;97755.16;10408181;28;20053;-63
2022/02/02 08:44:42;;;;;;;15.65;2.83;;;;;;;3.91;100.00;97754.88;10418670;28;20115;-63
2022/02/02 08:49:52;;;;;;;10.05;2.05;;;;;;;3.88;100.00;97806.63;10394138;28;20085;-61
2022/02/02 08:55:01;;;;;;;9.77;2.10;;;;;;;3.83;100.00;97744.91;10388763;28;20165;-62
2022/02/02 09:00:11;;;;;;;9.27;1.80;;;;;;;3.80;100.00;97809.97;10407250;28;20437;-62
2022/02/02 09:05:22;;;;;;;10.68;2.00;;;;;;;3.78;100.00;97808.41;10407469;28;20037;-64
2022/02/02 09:32:51;;;;;;;9.93;1.88;;;;;;;4.12;100.00;97819.63;10429318;28;20042;-63
2022/02/02 09:37:54;;;;;;;11.20;2.20;;;;;;;4.20;100.00;97836.78;10434805;28;20408;-64
2022/02/02 09:43:03;;;;;;;9.45;1.95;;;;;;;4.17;100.00;97840.56;10406139;28;20072;-61
2022/02/02 09:48:20;;;;;;;10.95;2.10;;;;;;;4.17;100.00;97853.91;10408579;28;20057;-62
2022/02/02 09:53:35;;;;;;;14.40;2.42;;;;;;;4.21;100.00;97868.63;10420877;28;20510;-62
2022/02/02 09:58:58;;;;;;;10.95;2.08;;;;;;;4.21;100.00;97865.97;10420166;28;20072;-62
2022/02/02 10:04:31;;;;;;;13.07;2.50;;;;;;;4.25;100.00;97869.19;10386597;28;20062;-64
2022/02/02 10:10:17;;;;;;;11.35;2.35;;;;;;;4.30;100.00;97886.47;10381698;28;20033;-65
2022/02/02 10:15:23;;;;;;;11.90;2.50;;;;;;;4.38;100.00;97888.47;10357092;28;20137;-64
2022/02/02 10:20:32;;;;;;;9.52;1.92;;;;;;;4.42;100.00;97899.69;10368070;28;20124;-64
2022/02/02 10:25:37;;;;;;;11.45;2.45;;;;;;;4.48;100.00;97896.50;10355510;28;20557;-64
2022/02/02 10:30:44;;;;;;;10.32;2.50;;;;;;;4.58;100.00;97899.22;10382834;28;20141;-64
2022/02/02 10:35:50;;;;;;;8.40;2.00;;;;;;;4.61;100.00;97889.13;10356058;28;20045;-63
2022/02/02 10:41:06;;;;;;;11.80;2.17;;;;;;;4.56;100.00;97912.66;10359101;28;20155;-63
2022/02/02 10:46:14;;;;;;;10.18;2.15;;;;;;;4.62;100.00;97900.59;10360341;28;20490;-62
2022/02/02 10:51:33;;;;;;;10.60;2.22;;;;;;;4.66;100.00;97906.50;10397992;28;20053;-62
2022/02/02 10:56:42;;;;;;;13.18;2.38;;;;;;;4.59;100.00;97915.06;10389811;28;20080;-62
2022/02/02 11:07:10;;;;;;;9.60;2.22;;;;;;;4.34;100.00;97953.75;10359319;28;20061;-63
2022/02/02 11:12:15;;;;;;;10.52;2.35;;;;;;;4.38;100.00;97957.81;10364015;28;20049;-63
2022/02/02 11:17:24;;;;;;;15.73;2.58;;;;;;;4.54;100.00;97951.16;10377071;28;20067;-63
2022/02/02 11:22:32;;;;;;;15.40;2.55;;;;;;;4.63;100.00;97964.53;10370820;28;20046;-55
2022/02/02 11:27:38;;;;;;;12.90;2.40;;;;;;;4.65;100.00;97968.84;10372114;28;20344;-64
2022/02/02 11:32:43;;;;;;;13.40;2.42;;;;;;;4.47;100.00;97982.84;10382008;28;20045;-64
2022/02/02 11:43:54;;;;;;;12.73;2.30;;;;;;;3.97;100.00;97999.53;10632195;27;20998;-56
2022/02/02 11:49:08;;;;;;;14.40;2.50;;;;;;;3.87;100.00;98015.47;10597138;27;20039;-59
2022/02/02 11:54:14;;;;;;;14.02;2.80;;;;;;;3.87;100.00;98034.13;10598830;27;20051;-61
2022/02/02 11:59:53;;;;;;;18.92;3.08;;;;;;;3.37;100.00;98040.00;10584633;27;20057;-61
2022/02/02 12:05:11;;;;;;;18.38;2.92;;;;;;;3.41;100.00;98068.03;10593940;27;20574;-62
2022/02/02 12:10:38;;;;;;;14.10;2.53;;;;;;;3.64;100.00;98055.53;10596074;27;20046;-62
2022/02/02 12:48:07;;;;;;;11.17;2.20;;;;;;;5.04;100.00;98038.41;10597529;27;20150;-63
2022/02/02 12:58:34;;;;;;;11.15;1.98;;;;;;;5.12;100.00;98043.88;10565832;27;20413;-65
2022/02/02 13:03:42;;;;;;;8.88;1.70;;;;;;;4.86;100.00;98060.41;10566937;27;20039;-63
2022/02/02 13:08:47;;;;;;;11.73;2.13;;;;;;;4.73;100.00;98065.13;10567656;28;20054;-66
2022/02/02 13:13:50;;;;;;;7.53;1.58;;;;;;;4.73;100.00;98070.44;10567456;28;20043;-64
2022/02/02 13:19:01;;;;;;;7.10;1.70;;;;;;;4.86;100.00;98071.09;10567979;28;20397;-62
2022/02/02 13:24:11;;;;;;;10.85;2.08;;;;;;;5.07;100.00;98120.91;10565185;28;20134;-66
2022/02/02 13:29:23;;;;;;;6.90;1.73;;;;;;;5.22;100.00;98111.56;10565575;27;20119;-65
2022/02/02 13:34:41;;;;;;;;;;;;;;;5.50;100.00;98103.75;10565254;27;20423;-64
2022/02/02 13:51:03;;;;;;;6.28;1.67;;;;;;;5.71;100.00;98122.38;10565525;27;20058;-62
2022/02/02 13:56:20;;;;;;;7.80;1.52;;;;;;;5.59;100.00;98128.81;10565689;27;20122;-64
2022/02/02 14:01:31;;;;;;;8.98;2.00;;;;;;;5.40;100.00;98159.00;10561767;28;20064;-63
2022/02/02 14:06:47;;;;;;;7.80;1.90;;;;;;;5.23;100.00;98163.13;10566843;27;20510;-65
2022/02/02 14:33:23;;;;;;;8.77;1.95;;;;;;;4.58;100.00;98252.22;10564525;27;20043;-64
2022/02/02 14:38:35;;;;;;;8.90;1.73;;;;;;;4.54;100.00;98250.78;10565536;28;20051;-63
2022/02/02 14:43:46;;;;;;;6.35;1.52;;;;;;;4.50;100.00;98240.47;10563605;28;20051;-64
2022/02/02 14:48:53;;;;;;;11.20;1.92;;;;;;;4.52;100.00;98251.88;10558792;28;20035;-63
2022/02/02 14:54:07;;;;;;;10.75;2.20;;;;;;;4.53;100.00;98264.25;10553196;28;20044;-66
2022/02/02 15:31:44;;;;;;;8.98;1.58;;;;;;;3.97;100.00;98333.56;10560839;28;20077;-65
2022/02/02 15:37:30;;;;;;;13.27;2.00;;;;;;;3.81;100.00;98360.56;10559271;28;20050;-65
2022/02/02 15:42:51;;;;;;;6.97;1.83;;;;;;;3.81;100.00;98359.75;10561045;28;20466;-65
2022/02/02 15:58:40;;;;;;;8.97;1.67;;;;;;;3.65;100.00;98398.22;10562183;28;20047;-67
2022/02/02 16:03:45;;;;;;;8.30;1.58;;;;;;;3.61;100.00;98399.41;10561826;28;20402;-62
2022/02/02 16:08:56;;;;;;;7.28;1.67;;;;;;;3.60;100.00;98403.03;10561343;28;20051;-65
2022/02/02 16:14:04;;;;;;;9.85;1.77;;;;;;;3.57;100.00;98413.97;10561315;28;20123;-65
2022/02/02 16:19:16;;;;;;;6.90;1.65;;;;;;;3.51;100.00;98417.06;10560729;28;20115;-64
2022/02/02 16:35:24;;;;;;;8.30;2.15;;;;;;;3.31;100.00;98443.41;10569902;28;20096;-65
2022/02/02 16:40:33;;;;;;;10.95;2.28;;;;;;;3.26;100.00;98447.38;10567595;28;20051;-65
2022/02/02 16:45:38;;;;;;;9.57;2.00;;;;;;;3.20;100.00;98454.00;10564720;28;21657;-63
2022/02/02 16:50:45;;;;;;;9.35;1.85;;;;;;;3.23;100.00;98454.63;10563301;27;20126;-64
2022/02/02 16:55:55;;;;;;;12.32;1.95;;;;;;;3.24;100.00;98474.09;10567416;27;20085;-63
2022/02/02 17:33:28;;;;;;;10.05;2.28;;;;;;;3.28;100.00;98560.78;10566257;27;20126;-64
2022/02/02 17:38:37;;;;;;;12.70;2.35;;;;;;;3.32;100.00;98546.28;10565581;28;20091;-64
2022/02/02 18:21:56;;;;;;;6.38;1.85;;;;;;;3.13;100.00;98604.47;10561981;27;20051;-62
2022/02/02 18:27:05;;;;;;;10.32;2.33;;;;;;;3.13;100.00;98602.69;10564467;27;20054;-65
2022/02/02 18:32:22;;;;;;;8.85;2.05;;;;;;;3.08;100.00;98613.66;10563673;28;20046;-65
2022/02/02 18:48:31;;;;;;;9.85;2.10;;;;;;;3.07;100.00;98643.91;10563931;27;20419;-62
2022/02/02 18:53:56;;;;;;;11.07;2.08;;;;;;;3.14;100.00;98632.81;10567742;27;20123;-64
2022/02/02 18:59:10;;;;;;;10.52;1.83;;;;;;;3.16;100.00;98641.53;10566041;27;20043;-66
2022/02/02 19:53:05;;;;;;;9.90;2.30;;;;;;;2.63;100.00;98735.63;10574010;27;20570;-66
2022/02/02 20:04:00;;;;;;;13.02;2.40;;;;;;;2.44;100.00;98738.66;10566378;28;20544;-62
2022/02/02 20:15:55;;;;;;;8.90;2.22;;;;;;;2.37;100.00;98732.91;10558278;28;20779;-62
2022/02/02 20:21:06;;;;;;;13.25;2.25;;;;;;;2.28;100.00;98731.69;10562359;27;20039;-60
2022/02/02 20:26:11;;;;;;;10.77;2.30;;;;;;;2.43;100.00;98744.94;10562053;27;20074;-64
2022/02/02 20:31:17;;;;;;;11.43;2.30;;;;;;;2.55;100.00;98732.63;10559450;27;20391;-64
2022/02/02 20:36:20;;;;;;;10.02;2.10;;;;;;;2.59;100.00;98736.78;10566941;27;20122;-67
2022/02/02 20:41:24;;;;;;;10.23;2.05;;;;;;;2.54;100.00;98744.22;10561783;27;20044;-66
2022/02/02 20:46:43;;;;;;;9.18;2.00;;;;;;;2.50;100.00;98745.38;10564837;28;20081;-67
2022/02/02 21:08:14;;;;;;;10.55;2.13;;;;;;;2.65;100.00;98739.03;10558694;27;20937;-67
2022/02/02 21:18:40;;;;;;;9.95;2.13;;;;;;;2.62;100.00;98748.06;10559269;28;20060;-66
2022/02/02 21:24:16;;;;;;;14.82;2.30;;;;;;;2.60;100.00;98744.66;10567095;27;20055;-64
2022/02/02 21:29:08;;;;;;;10.65;2.05;;;;;;;2.66;100.00;98750.53;10526304;27;20654;-65
2022/02/02 21:34:13;;;;;;;12.30;2.22;;;;;;;2.61;100.00;98750.84;10518018;28;20127;-65
2022/02/02 21:39:21;;;;;;;11.07;2.13;;;;;;;2.55;100.00;98759.22;10522084;28;20126;-63
2022/02/02 21:44:25;;;;;;;12.82;2.40;;;;;;;2.52;100.00;98759.44;10520882;28;20047;-60
2022/02/02 21:49:29;;;;;;;13.93;2.08;;;;;;;2.50;100.00;98758.69;10520946;28;20067;-65
2022/02/02 21:54:32;;;;;;;12.30;2.05;;;;;;;2.49;100.00;98770.28;10519153;28;20083;-65
2022/02/02 21:59:36;;;;;;;10.05;2.25;;;;;;;2.34;100.00;98772.16;10553470;27;20354;-61
2022/02/02 22:04:42;;;;;;;13.85;2.80;;;;;;;2.25;100.00;98781.56;10517574;28;20071;-65
2022/02/02 22:09:49;;;;;;;11.23;2.33;;;;;;;2.21;100.00;98782.72;10519368;28;20056;-66
2022/02/02 22:14:53;;;;;;;15.25;2.72;;;;;;;2.10;100.00;98789.56;10521214;28;20139;-64
2022/02/02 22:20:02;;;;;;;13.55;2.55;;;;;;;2.05;100.00;98798.78;10521124;28;20478;-63
2022/02/02 22:25:07;;;;;;;13.20;2.60;;;;;;;1.99;100.00;98806.22;10553426;27;20052;-64
2022/02/02 22:30:11;;;;;;;9.85;2.28;;;;;;;1.95;100.00;98809.13;10517976;28;20032;-65
2022/02/02 22:35:17;;;;;;;15.93;2.55;;;;;;;1.90;100.00;98819.22;10519123;28;20143;-64
2022/02/02 22:40:24;;;;;;;12.00;2.50;;;;;;;1.82;100.00;98825.84;10516644;28;20048;-66
2022/02/02 22:45:28;;;;;;;12.45;2.63;;;;;;;1.74;100.00;98832.63;10519869;28;20704;-67
2022/02/02 22:50:32;;;;;;;19.10;2.80;;;;;;;1.67;100.00;98840.94;10520247;28;20596;-69
2022/02/02 22:55:36;;;;;;;12.93;3.10;;;;;;;1.61;100.00;98845.78;10519408;28;20134;-62
2022/02/02 23:00:41;;;;;;;16.17;2.85;;;;;;;1.52;100.00;98861.34;10518798;28;20151;-67
2022/02/02 23:05:49;;;;;;;13.63;3.10;;;;;;;1.48;100.00;98866.94;10520301;28;20174;-66
2022/02/02 23:10:52;;;;;;;15.43;2.65;;;;;;;1.43;100.00;98861.91;10519901;28;20504;-67
2022/02/02 23:16:00;;;;;;;13.85;2.75;;;;;;;1.40;100.00;98867.38;10520530;28;20046;-66
2022/02/02 23:21:09;;;;;;;17.15;2.92;;;;;;;1.35;100.00;98858.88;10521486;28;20122;-66
2022/02/02 23:26:13;;;;;;;11.73;2.38;;;;;;;1.30;100.00;98861.75;10519425;28;20044;-66
2022/02/02 23:31:18;;;;;;;15.38;2.58;;;;;;;1.22;100.00;98859.59;10520801;28;20063;-64
2022/02/02 23:36:22;;;;;;;14.90;2.67;;;;;;;1.12;100.00;98850.44;10520609;28;20078;-65
2022/02/02 23:42:04;;;;;;;16.33;2.83;;;;;;;1.10;100.00;98864.75;10517369;28;20067;-66
2022/02/02 23:47:08;;;;;;;15.20;2.63;;;;;;;1.07;100.00;98861.34;10519870;28;20519;-65
2022/02/02 23:52:13;;;;;;;15.00;2.85;;;;;;;1.07;100.00;98860.50;10516285;28;20037;-65
2022/02/02 23:57:30;;;;;;;14.07;2.60;;;;;;;1.10;100.00;98865.63;10519330;28;20048;-65
